createdAt,value
2019-06-26T00:01:09.745Z,10.63
2019-06-26T00:03:40.768Z,11.00
2019-06-26T00:06:10.535Z,10.63
2019-06-26T00:08:42.076Z,11.10
2019-06-26T00:11:12.046Z,10.70
2019-06-26T00:13:41.835Z,11.40
2019-06-26T00:16:11.464Z,11.33
2019-06-26T00:18:41.143Z,10.50
2019-06-26T00:21:12.951Z,11.43
2019-06-26T00:23:43.832Z,11.13
2019-06-26T00:26:13.629Z,10.23
2019-06-26T00:28:43.695Z,10.67
2019-06-26T00:31:13.780Z,10.30
2019-06-26T00:33:43.499Z,10.77
2019-06-26T00:36:13.212Z,11.23
2019-06-26T00:38:42.948Z,10.30
2019-06-26T00:41:12.694Z,11.07
2019-06-26T00:43:44.311Z,10.93
2019-06-26T00:46:13.977Z,10.83
2019-06-26T00:48:45.527Z,11.33
2019-06-26T00:51:15.914Z,11.70
2019-06-26T00:53:47.518Z,11.37
2019-06-26T00:56:17.713Z,10.47
2019-06-26T00:58:49.022Z,10.13
2019-06-26T01:01:22.338Z,11.53
2019-06-26T01:03:53.285Z,10.90
2019-06-26T01:06:44.876Z,10.50
2019-06-26T01:09:15.602Z,10.17
2019-06-26T01:11:47.211Z,10.17
2019-06-26T01:14:17.670Z,11.80
2019-06-26T01:16:47.507Z,11.00
2019-06-26T01:19:18.677Z,11.17
2019-06-26T01:21:48.293Z,11.07
2019-06-26T01:24:17.992Z,10.93
2019-06-26T01:26:47.993Z,10.20
2019-06-26T01:29:18.075Z,10.80
2019-06-26T01:31:47.654Z,11.47
2019-06-26T01:34:17.490Z,11.50
2019-06-26T01:36:49.812Z,10.93
2019-06-26T01:39:19.485Z,11.07
2019-06-26T01:41:49.223Z,11.30
2019-06-26T01:44:19.118Z,11.83
2019-06-26T01:46:50.649Z,11.10
2019-06-26T01:49:21.063Z,10.97
2019-06-26T01:51:51.135Z,10.83
2019-06-26T01:54:21.104Z,10.73
2019-06-26T01:56:52.665Z,11.87
2019-06-26T01:59:23.476Z,14.20
2019-06-26T02:01:55.007Z,12.27
2019-06-26T02:04:24.946Z,11.00
2019-06-26T02:06:54.924Z,11.87
2019-06-26T02:09:24.936Z,11.53
2019-06-26T02:11:56.445Z,10.37
2019-06-26T02:14:31.465Z,10.40
2019-06-26T02:16:58.715Z,11.37
2019-06-26T02:19:28.676Z,15.30
2019-06-26T02:21:58.345Z,11.77
2019-06-26T02:24:28.375Z,13.43
2019-06-26T02:26:58.708Z,12.83
2019-06-26T02:29:28.380Z,12.00
2019-06-26T02:31:58.338Z,11.97
2019-06-26T02:34:28.104Z,12.40
2019-06-26T02:36:58.190Z,12.60
2019-06-26T02:39:29.695Z,13.60
2019-06-26T02:41:59.301Z,13.03
2019-06-26T02:44:51.510Z,13.23
2019-06-26T02:47:18.748Z,12.97
2019-06-26T02:49:35.063Z,12.50
2019-06-26T02:52:04.751Z,12.73
2019-06-26T02:54:35.124Z,12.23
2019-06-26T02:57:05.837Z,13.30
2019-06-26T02:59:35.571Z,13.00
2019-06-26T03:02:05.232Z,12.97
2019-06-26T03:04:36.423Z,12.17
2019-06-26T03:07:08.059Z,12.23
2019-06-26T03:09:37.972Z,13.20
2019-06-26T03:12:08.438Z,13.50
2019-06-26T03:14:39.324Z,12.80
2019-06-26T03:17:09.037Z,14.70
2019-06-26T03:19:39.752Z,13.63
2019-06-26T03:22:09.796Z,14.67
2019-06-26T03:24:39.829Z,14.70
2019-06-26T03:27:10.288Z,13.60
2019-06-26T03:29:39.988Z,16.10
2019-06-26T03:32:12.868Z,14.97
2019-06-26T03:34:45.440Z,15.07
2019-06-26T03:37:15.465Z,16.77
2019-06-26T03:39:46.700Z,17.47
2019-06-26T03:42:16.336Z,16.23
2019-06-26T03:44:46.457Z,15.77
2019-06-26T03:47:18.091Z,15.70
2019-06-26T03:49:49.419Z,15.87
2019-06-26T03:52:19.201Z,16.20
2019-06-26T03:54:49.658Z,16.33
2019-06-26T03:57:21.673Z,17.13
2019-06-26T03:59:53.382Z,15.60
2019-06-26T04:02:23.274Z,17.43
2019-06-26T04:04:52.980Z,15.90
2019-06-26T04:07:22.802Z,15.53
2019-06-26T04:09:52.485Z,16.23
2019-06-26T04:12:22.325Z,17.77
2019-06-26T04:14:52.686Z,17.80
2019-06-26T04:17:24.132Z,17.60
2019-06-26T04:19:55.420Z,19.60
2019-06-26T04:22:26.673Z,19.77
2019-06-26T04:24:56.344Z,18.67
2019-06-26T04:27:26.744Z,18.27
2019-06-26T04:29:56.461Z,16.97
2019-06-26T04:32:26.162Z,18.80
2019-06-26T04:34:56.907Z,20.60
2019-06-26T04:37:26.932Z,21.10
2019-06-26T04:39:56.892Z,19.43
2019-06-26T04:42:26.785Z,19.73
2019-06-26T04:44:56.760Z,23.40
2019-06-26T04:47:26.831Z,22.17
2019-06-26T04:49:59.231Z,19.20
2019-06-26T04:52:29.577Z,23.47
2019-06-26T04:54:59.176Z,20.40
2019-06-26T04:57:30.411Z,21.73
2019-06-26T05:00:03.553Z,20.37
2019-06-26T05:02:33.256Z,19.83
2019-06-26T05:05:05.168Z,20.47
2019-06-26T05:07:35.246Z,19.37
2019-06-26T05:10:05.696Z,21.20
2019-06-26T05:12:36.326Z,21.03
2019-06-26T05:15:07.267Z,22.93
2019-06-26T05:17:37.028Z,19.40
2019-06-26T05:20:08.227Z,21.13
2019-06-26T05:22:38.523Z,21.13
2019-06-26T05:25:08.939Z,24.50
2019-06-26T05:27:40.304Z,20.63
2019-06-26T05:30:11.080Z,21.30
2019-06-26T05:32:41.149Z,21.13
2019-06-26T05:35:12.229Z,23.43
2019-06-26T05:37:43.577Z,24.23
2019-06-26T05:40:15.105Z,22.07
2019-06-26T05:42:46.460Z,23.43
2019-06-26T05:45:16.766Z,23.43
2019-06-26T05:47:46.293Z,22.70
2019-06-26T05:50:16.697Z,20.73
2019-06-26T05:52:46.598Z,24.07
2019-06-26T05:55:17.640Z,22.20
2019-06-26T05:57:48.626Z,21.50
2019-06-26T06:00:20.727Z,20.20
2019-06-26T06:02:53.729Z,24.57
2019-06-26T06:05:21.715Z,26.20
2019-06-26T06:07:51.622Z,26.53
2019-06-26T06:10:21.368Z,26.37
2019-06-26T06:12:51.656Z,25.60
2019-06-26T06:15:21.442Z,27.73
2019-06-26T06:17:51.333Z,23.87
2019-06-26T06:20:28.114Z,25.77
2019-06-26T06:22:57.708Z,27.57
2019-06-26T06:25:27.576Z,28.60
2019-06-26T06:27:57.103Z,26.30
2019-06-26T06:30:29.270Z,25.70
2019-06-26T06:32:59.255Z,28.83
2019-06-26T06:35:28.860Z,28.57
2019-06-26T06:37:58.735Z,27.53
2019-06-26T06:40:30.210Z,27.43
2019-06-26T06:43:01.678Z,23.90
2019-06-26T06:45:32.260Z,27.93
2019-06-26T06:48:03.572Z,27.23
2019-06-26T06:50:33.365Z,30.10
2019-06-26T06:53:03.289Z,26.07
2019-06-26T06:55:34.088Z,29.63
2019-06-26T06:58:03.700Z,25.73
2019-06-26T07:00:33.278Z,25.57
2019-06-26T07:03:02.951Z,28.67
2019-06-26T07:05:34.386Z,24.57
2019-06-26T07:08:03.937Z,25.90
2019-06-26T07:10:33.904Z,28.90
2019-06-26T07:13:04.541Z,22.50
2019-06-26T07:15:34.246Z,27.07
2019-06-26T07:18:04.086Z,32.07
2019-06-26T07:20:34.297Z,27.17
2019-06-26T07:23:03.856Z,27.23
2019-06-26T07:25:35.255Z,27.70
2019-06-26T07:28:05.197Z,30.53
2019-06-26T07:30:35.775Z,27.50
2019-06-26T07:33:05.791Z,29.67
2019-06-26T07:35:35.540Z,29.07
2019-06-26T07:38:06.141Z,26.07
2019-06-26T07:40:35.708Z,29.57
2019-06-26T07:43:05.587Z,25.70
2019-06-26T07:45:36.319Z,27.13
2019-06-26T07:48:06.007Z,27.43
2019-06-26T07:50:38.352Z,23.13
2019-06-26T07:53:09.601Z,25.20
2019-06-26T07:55:40.572Z,23.27
2019-06-26T07:58:10.817Z,22.67
2019-06-26T08:00:40.523Z,21.63
2019-06-26T08:03:10.094Z,21.07
2019-06-26T08:05:42.808Z,23.43
2019-06-26T08:08:14.479Z,23.07
2019-06-26T08:10:44.307Z,22.63
2019-06-26T08:13:14.305Z,25.50
2019-06-26T08:15:47.695Z,25.37
2019-06-26T08:18:18.315Z,23.47
2019-06-26T08:21:07.305Z,24.73
2019-06-26T08:23:20.007Z,21.20
2019-06-26T08:25:50.137Z,19.70
2019-06-26T08:28:20.163Z,24.73
2019-06-26T08:30:51.969Z,22.47
2019-06-26T08:33:23.846Z,23.07
2019-06-26T08:35:53.984Z,27.17
2019-06-26T08:38:23.691Z,25.80
2019-06-26T08:40:54.268Z,27.43
2019-06-26T08:43:24.623Z,23.67
2019-06-26T08:45:57.815Z,26.70
2019-06-26T08:48:38.826Z,25.53
2019-06-26T08:50:59.244Z,31.13
2019-06-26T08:53:29.619Z,28.97
2019-06-26T08:56:00.270Z,28.20
2019-06-26T08:58:30.537Z,28.67
2019-06-26T09:01:00.410Z,28.40
2019-06-26T09:03:30.142Z,28.20
2019-06-26T09:06:00.046Z,26.30
2019-06-26T09:08:31.557Z,37.67
2019-06-26T09:11:01.734Z,34.83
2019-06-26T09:13:31.448Z,31.63
2019-06-26T09:16:01.582Z,31.53
2019-06-26T09:18:35.901Z,29.87
2019-06-26T09:21:03.997Z,31.60
2019-06-26T09:23:33.780Z,38.77
2019-06-26T09:26:03.820Z,28.40
2019-06-26T09:28:33.819Z,26.47
2019-06-26T09:31:03.623Z,28.03
2019-06-26T09:33:33.244Z,30.83
2019-06-26T09:36:06.859Z,25.37
2019-06-26T09:38:35.818Z,27.00
2019-06-26T09:41:05.557Z,23.13
2019-06-26T09:43:35.232Z,22.00
2019-06-26T09:46:05.029Z,20.03
2019-06-26T09:48:51.178Z,19.70
2019-06-26T09:51:05.937Z,19.67
2019-06-26T09:53:47.027Z,19.10
2019-06-26T09:56:10.262Z,17.17
2019-06-26T09:58:39.847Z,19.70
2019-06-26T10:01:09.910Z,22.23
2019-06-26T10:03:39.791Z,20.83
2019-06-26T10:06:09.661Z,20.00
2019-06-26T10:08:39.374Z,22.23
2019-06-26T10:11:09.916Z,21.00
2019-06-26T10:13:42.714Z,20.60
2019-06-26T10:16:12.146Z,20.50
2019-06-26T10:18:42.173Z,20.30
2019-06-26T10:21:11.747Z,18.67
2019-06-26T10:23:42.060Z,16.33
2019-06-26T10:26:11.584Z,17.23
2019-06-26T10:28:41.795Z,16.77
2019-06-26T10:31:13.470Z,16.73
2019-06-26T10:33:43.555Z,16.43
2019-06-26T10:36:13.559Z,15.90
2019-06-26T10:38:43.390Z,14.53
2019-06-26T10:41:13.560Z,15.10
2019-06-26T10:43:43.559Z,14.00
2019-06-26T10:46:13.825Z,14.30
2019-06-26T10:48:45.319Z,13.87
2019-06-26T10:51:15.048Z,13.30
2019-06-26T10:53:45.033Z,13.73
2019-06-26T10:56:16.417Z,11.03
2019-06-26T10:58:46.229Z,13.53
2019-06-26T11:01:17.264Z,14.70
2019-06-26T11:03:48.704Z,13.50
2019-06-26T11:06:18.364Z,16.97
2019-06-26T11:08:48.071Z,13.90
2019-06-26T11:11:18.018Z,14.77
2019-06-26T11:13:48.145Z,14.33
2019-06-26T11:16:18.789Z,13.07
2019-06-26T11:18:48.993Z,12.97
2019-06-26T11:21:19.171Z,11.07
2019-06-26T11:23:49.965Z,10.77
2019-06-26T11:26:20.042Z,12.07
2019-06-26T11:28:50.230Z,11.50
2019-06-26T11:31:20.390Z,12.80
2019-06-26T11:33:51.702Z,11.70
2019-06-26T11:36:21.705Z,12.30
2019-06-26T11:38:51.600Z,10.83
2019-06-26T11:41:21.695Z,10.97
2019-06-26T11:43:53.520Z,11.50
2019-06-26T11:46:23.442Z,9.67
2019-06-26T11:48:53.955Z,10.10
2019-06-26T11:51:24.045Z,10.47
2019-06-26T11:53:58.858Z,12.93
2019-06-26T11:56:26.102Z,9.47
2019-06-26T11:58:56.110Z,8.33
2019-06-26T12:01:26.100Z,8.80
2019-06-26T12:03:56.581Z,8.27
2019-06-26T12:06:26.462Z,9.83
2019-06-26T12:08:56.074Z,8.80
2019-06-26T12:11:25.815Z,9.27
2019-06-26T12:13:55.846Z,8.80
2019-06-26T12:16:26.169Z,9.73
2019-06-26T12:18:56.107Z,8.20
2019-06-26T12:21:26.116Z,8.00
2019-06-26T12:23:55.881Z,10.27
2019-06-26T12:26:26.852Z,9.00
2019-06-26T12:28:57.761Z,7.83
2019-06-26T12:31:28.405Z,8.70
2019-06-26T12:33:58.697Z,8.80
2019-06-26T12:36:28.867Z,8.90
2019-06-26T12:38:58.777Z,9.23
2019-06-26T12:41:28.918Z,9.20
2019-06-26T12:43:58.659Z,9.20
2019-06-26T12:46:28.595Z,8.50
2019-06-26T12:49:00.177Z,8.80
2019-06-26T12:51:30.022Z,8.50
2019-06-26T12:53:59.772Z,8.40
2019-06-26T12:56:30.799Z,6.97
2019-06-26T12:59:02.185Z,8.00
2019-06-26T13:01:31.929Z,8.83
2019-06-26T13:04:01.944Z,8.60
2019-06-26T13:06:31.937Z,9.50
2019-06-26T13:09:01.866Z,9.47
2019-06-26T13:11:33.040Z,9.10
2019-06-26T13:14:03.401Z,9.20
2019-06-26T13:16:34.355Z,9.43
2019-06-26T13:19:06.190Z,9.33
2019-06-26T13:21:35.870Z,9.17
2019-06-26T13:24:06.828Z,10.60
2019-06-26T13:26:38.473Z,9.87
2019-06-26T13:29:09.998Z,9.57
2019-06-26T13:31:40.366Z,10.20
2019-06-26T13:34:12.645Z,9.37
2019-06-26T13:36:43.518Z,10.53
2019-06-26T13:39:15.077Z,10.50
2019-06-26T13:41:47.169Z,10.27
2019-06-26T13:44:16.906Z,10.90
2019-06-26T13:46:48.225Z,10.20
2019-06-26T13:49:18.070Z,10.13
2019-06-26T13:51:47.686Z,10.27
2019-06-26T13:54:19.698Z,10.50
2019-06-26T13:56:51.175Z,11.53
2019-06-26T13:59:21.313Z,10.77
2019-06-26T14:01:51.284Z,13.80
2019-06-26T14:04:22.076Z,11.47
2019-06-26T14:06:52.301Z,12.00
2019-06-26T14:09:23.338Z,13.50
2019-06-26T14:11:53.339Z,11.70
2019-06-26T14:14:37.662Z,11.83
2019-06-26T14:16:57.395Z,12.47
2019-06-26T14:19:28.174Z,12.40
2019-06-26T14:21:57.873Z,12.23
2019-06-26T14:24:29.581Z,14.70
2019-06-26T14:26:59.265Z,14.20
2019-06-26T14:29:29.017Z,13.83
2019-06-26T14:31:58.612Z,12.83
2019-06-26T14:34:28.601Z,14.00
2019-06-26T14:37:00.689Z,14.00
2019-06-26T14:39:33.282Z,13.13
2019-06-26T14:42:03.420Z,14.53
2019-06-26T14:44:33.111Z,14.60
2019-06-26T14:47:04.839Z,12.70
2019-06-26T14:49:36.269Z,13.43
2019-06-26T14:52:06.104Z,12.23
2019-06-26T14:54:35.741Z,15.17
2019-06-26T14:57:05.649Z,13.97
2019-06-26T14:59:35.723Z,15.20
2019-06-26T15:02:05.537Z,15.30
2019-06-26T15:04:37.449Z,16.13
2019-06-26T15:07:08.875Z,19.43
2019-06-26T15:09:39.765Z,15.80
2019-06-26T15:12:10.457Z,18.37
2019-06-26T15:14:41.490Z,18.27
2019-06-26T15:17:12.989Z,16.57
2019-06-26T15:19:42.777Z,16.90
2019-06-26T15:22:14.521Z,15.23
2019-06-26T15:24:47.239Z,16.17
2019-06-26T15:27:17.859Z,15.40
2019-06-26T15:29:47.974Z,16.07
2019-06-26T15:32:19.280Z,16.93
2019-06-26T15:34:49.369Z,16.70
2019-06-26T15:37:21.038Z,13.90
2019-06-26T15:39:51.076Z,12.87
2019-06-26T15:42:22.765Z,13.57
2019-06-26T15:44:52.564Z,13.23
2019-06-26T15:47:23.740Z,12.50
2019-06-26T15:49:55.232Z,14.27
2019-06-26T15:52:25.213Z,13.83
2019-06-26T15:54:55.355Z,14.53
2019-06-26T15:57:25.218Z,13.97
2019-06-26T15:59:54.970Z,15.27
2019-06-26T16:02:28.633Z,14.83
2019-06-26T16:04:58.232Z,14.73
2019-06-26T16:07:27.962Z,16.93
2019-06-26T16:09:59.227Z,16.30
2019-06-26T16:12:29.497Z,17.07
2019-06-26T16:14:59.299Z,16.40
2019-06-26T16:17:35.968Z,17.23
2019-06-26T16:20:07.457Z,15.10
2019-06-26T16:22:37.937Z,16.43
2019-06-26T16:25:08.760Z,16.63
2019-06-26T16:27:39.510Z,16.27
2019-06-26T16:30:09.641Z,13.87
2019-06-26T16:32:39.681Z,15.13
2019-06-26T16:35:12.359Z,14.23
2019-06-26T16:37:46.828Z,12.33
2019-06-26T16:40:16.452Z,12.80
2019-06-26T16:42:46.232Z,12.17
2019-06-26T16:45:17.388Z,11.43
2019-06-26T16:47:47.753Z,12.47
2019-06-26T16:50:18.762Z,11.00
2019-06-26T16:52:50.623Z,12.10
2019-06-26T16:55:21.457Z,10.43
2019-06-26T16:57:51.885Z,10.53
2019-06-26T17:00:22.142Z,10.43
2019-06-26T17:02:53.149Z,10.40
2019-06-26T17:05:22.824Z,11.50
2019-06-26T17:07:52.999Z,11.53
2019-06-26T17:10:24.747Z,11.30
2019-06-26T17:12:55.275Z,10.73
2019-06-26T17:15:25.643Z,12.97
2019-06-26T17:17:57.016Z,11.57
2019-06-26T17:20:28.024Z,10.87
2019-06-26T17:23:05.657Z,12.40
2019-06-26T17:25:32.857Z,13.90
2019-06-26T17:28:10.461Z,12.80
2019-06-26T17:30:45.671Z,11.83
2019-06-26T17:33:15.825Z,13.47
2019-06-26T17:35:47.256Z,11.83
2019-06-26T17:38:18.944Z,12.63
2019-06-26T17:40:50.521Z,12.30
2019-06-26T17:43:20.965Z,12.40
2019-06-26T17:45:51.049Z,12.37
2019-06-26T17:48:21.158Z,10.40
2019-06-26T17:50:51.635Z,10.97
2019-06-26T17:53:23.072Z,9.97
2019-06-26T17:55:54.489Z,11.07
2019-06-26T17:58:25.610Z,9.83
2019-06-26T18:00:56.519Z,9.77
2019-06-26T18:03:30.344Z,9.23
2019-06-26T18:06:02.214Z,9.57
2019-06-26T18:08:32.545Z,9.37
2019-06-26T18:11:03.806Z,8.50
2019-06-26T18:13:33.947Z,8.67
2019-06-26T18:16:04.010Z,9.70
2019-06-26T18:18:33.565Z,9.20
2019-06-26T18:21:03.400Z,8.90
2019-06-26T18:23:37.823Z,10.00
2019-06-26T18:26:13.177Z,9.23
2019-06-26T18:28:36.187Z,10.00
2019-06-26T18:31:08.366Z,9.67
2019-06-26T18:33:38.387Z,9.97
2019-06-26T18:36:08.146Z,8.97
2019-06-26T18:38:38.081Z,9.10
2019-06-26T18:41:07.969Z,9.20
2019-06-26T18:43:37.947Z,9.07
2019-06-26T18:46:07.862Z,8.17
2019-06-26T18:48:38.798Z,9.27
2019-06-26T18:51:11.648Z,8.97
2019-06-26T18:53:53.065Z,9.17
2019-06-26T18:56:14.372Z,8.70
2019-06-26T18:58:44.538Z,9.03
2019-06-26T19:01:16.390Z,10.53
2019-06-26T19:03:46.473Z,9.00
2019-06-26T19:06:28.556Z,8.27
2019-06-26T19:09:00.062Z,9.23
2019-06-26T19:11:30.150Z,8.50
2019-06-26T19:14:01.778Z,7.33
2019-06-26T19:16:36.301Z,8.63
2019-06-26T19:19:06.536Z,9.03
2019-06-26T19:21:37.152Z,13.50
2019-06-26T19:24:10.416Z,9.60
2019-06-26T19:26:38.441Z,8.90
2019-06-26T19:29:09.669Z,9.67
2019-06-26T19:31:40.365Z,10.77
2019-06-26T19:34:14.778Z,11.23
2019-06-26T19:36:49.960Z,9.60
2019-06-26T19:39:20.771Z,10.40
2019-06-26T19:41:50.549Z,10.70
2019-06-26T19:44:21.907Z,9.23
2019-06-26T19:46:52.518Z,16.70
2019-06-26T19:49:22.269Z,9.77
2019-06-26T19:51:53.586Z,9.80
2019-06-26T19:54:27.755Z,10.03
2019-06-26T19:56:56.010Z,9.40
2019-06-26T19:59:25.624Z,9.80
2019-06-26T20:01:57.316Z,9.30
2019-06-26T20:04:28.594Z,9.33
2019-06-26T20:06:58.767Z,9.77
2019-06-26T20:09:28.763Z,10.03
2019-06-26T20:11:58.574Z,9.17
2019-06-26T20:14:31.053Z,8.80
2019-06-26T20:17:01.544Z,9.83
2019-06-26T20:19:32.181Z,8.90
2019-06-26T20:22:03.396Z,8.53
2019-06-26T20:24:43.325Z,7.40
2019-06-26T20:27:06.780Z,6.53
2019-06-26T20:29:36.580Z,7.47
2019-06-26T20:32:06.593Z,7.43
2019-06-26T20:34:36.630Z,7.30
2019-06-26T20:37:06.843Z,8.10
2019-06-26T20:39:37.474Z,7.70
2019-06-26T20:42:07.975Z,6.47
2019-06-26T20:44:37.650Z,6.93
2019-06-26T20:47:10.950Z,7.80
2019-06-26T20:49:52.643Z,7.90
2019-06-26T20:52:12.997Z,7.67
2019-06-26T20:54:56.816Z,5.87
2019-06-26T20:57:14.355Z,6.97
2019-06-26T20:59:48.053Z,7.17
2019-06-26T21:02:18.659Z,9.80
2019-06-26T21:04:48.732Z,7.03
2019-06-26T21:07:19.236Z,6.77
2019-06-26T21:09:48.967Z,7.13
2019-06-26T21:12:19.084Z,8.10
2019-06-26T21:14:49.793Z,7.53
2019-06-26T21:17:19.502Z,7.40
2019-06-26T21:19:49.969Z,8.37
2019-06-26T21:22:19.600Z,7.43
2019-06-26T21:24:49.476Z,7.20
2019-06-26T21:27:21.164Z,6.97
2019-06-26T21:29:52.512Z,7.70
2019-06-26T21:32:22.572Z,11.00
2019-06-26T21:34:52.839Z,10.43
2019-06-26T21:37:22.936Z,8.70
2019-06-26T21:39:54.114Z,8.70
2019-06-26T21:42:24.572Z,9.13
2019-06-26T21:44:55.173Z,11.13
2019-06-26T21:47:26.136Z,12.20
2019-06-26T21:49:57.304Z,10.83
2019-06-26T21:52:27.587Z,9.60
2019-06-26T21:54:57.720Z,8.47
2019-06-26T21:57:27.722Z,9.53
2019-06-26T22:00:00.415Z,8.90
2019-06-26T22:02:30.444Z,10.57
2019-06-26T22:05:02.163Z,9.93
2019-06-26T22:07:32.867Z,11.33
2019-06-26T22:10:03.112Z,11.07
2019-06-26T22:12:35.191Z,9.60
2019-06-26T22:15:05.052Z,11.10
2019-06-26T22:17:34.748Z,10.00
2019-06-26T22:20:09.790Z,12.33
2019-06-26T22:22:38.296Z,11.50
2019-06-26T22:25:08.796Z,12.53
2019-06-26T22:27:40.361Z,11.33
2019-06-26T22:30:10.025Z,10.80
2019-06-26T22:32:41.693Z,11.43
2019-06-26T22:35:11.548Z,13.07
2019-06-26T22:37:41.563Z,10.80
2019-06-26T22:40:12.266Z,9.70
2019-06-26T22:42:43.700Z,9.40
2019-06-26T22:45:14.600Z,13.43
2019-06-26T22:47:44.679Z,12.63
2019-06-26T22:50:15.782Z,8.10
2019-06-26T22:52:46.118Z,8.93
2019-06-26T22:55:18.927Z,9.03
2019-06-26T22:57:48.556Z,12.27
2019-06-26T23:00:21.020Z,8.33
2019-06-26T23:02:50.551Z,11.03
2019-06-26T23:05:21.762Z,9.70
2019-06-26T23:07:51.813Z,8.63
2019-06-26T23:10:21.643Z,7.90
2019-06-26T23:12:52.654Z,9.30
2019-06-26T23:15:22.628Z,7.80
2019-06-26T23:17:53.896Z,7.83
2019-06-26T23:20:24.403Z,10.33
2019-06-26T23:22:54.172Z,7.47
2019-06-26T23:25:24.138Z,6.67
2019-06-26T23:27:53.905Z,10.60
2019-06-26T23:30:25.903Z,9.00
2019-06-26T23:32:56.041Z,5.70
2019-06-26T23:35:26.532Z,9.90
2019-06-26T23:37:56.419Z,8.70
2019-06-26T23:40:26.100Z,5.33
2019-06-26T23:42:57.783Z,7.70
2019-06-26T23:45:27.818Z,7.60
2019-06-26T23:48:00.920Z,8.40
2019-06-26T23:50:31.021Z,8.23
2019-06-26T23:53:04.803Z,6.03
2019-06-26T23:55:34.871Z,8.37
2019-06-26T23:58:04.437Z,7.40
